Time;durP1;ratioP1;P1;durP2;ratioP2;P2;SDS_P1;SDS_P2;PMS_P1;PMS_P2;Temp;Humidity;BMP_temperature;BMP_pressure;BME280_temperature;BME280_humidity;BME280_pressure;Samples;Min_cycle;Max_cycle;Signal;HPM_P1;HPM_P2
2024/01/23 00:01:26;;;;;;;12.23;3.70;;;8.90;99.90;;;;;;5019253;28;20465;-31
2024/01/23 00:03:56;;;;;;;14.10;5.37;;;8.90;99.90;;;;;;5020162;28;20428;-33
2024/01/23 00:06:22;;;;;;;11.47;3.43;;;8.90;99.90;;;;;;5020269;28;21360;-31
2024/01/23 00:08:48;;;;;;;11.50;4.03;;;8.90;99.90;;;;;;5001233;28;20451;-31
2024/01/23 00:11:21;;;;;;;10.13;3.93;;;8.90;99.90;;;;;;5019760;28;20452;-31
2024/01/23 00:13:48;;;;;;;17.23;3.90;;;8.90;99.90;;;;;;5019879;28;20419;-30
2024/01/23 00:16:16;;;;;;;15.70;3.73;;;8.90;99.90;;;;;;5014735;28;20455;-31
2024/01/23 00:18:45;;;;;;;13.27;3.27;;;8.90;99.90;;;;;;5017081;28;20420;-30
2024/01/23 00:21:11;;;;;;;13.60;4.70;;;8.90;99.90;;;;;;5019317;28;20444;-31
2024/01/23 00:23:45;;;;;;;11.40;3.63;;;8.90;99.90;;;;;;5016237;28;20447;-33
2024/01/23 00:26:11;;;;;;;14.70;4.13;;;8.90;99.90;;;;;;5017455;28;20569;-29
2024/01/23 00:28:37;;;;;;;9.33;4.23;;;8.90;99.90;;;;;;5034638;28;20514;-33
2024/01/23 00:31:03;;;;;;;13.53;3.70;;;8.90;99.90;;;;;;5020758;28;20455;-31
2024/01/23 00:33:32;;;;;;;11.00;3.47;;;8.90;99.90;;;;;;5034332;28;20531;-31
2024/01/23 00:35:58;;;;;;;11.87;4.03;;;8.90;99.90;;;;;;5012844;28;21201;-30
2024/01/23 00:38:24;;;;;;;9.27;3.27;;;8.90;99.90;;;;;;5037380;28;20977;-30
2024/01/23 00:40:50;;;;;;;13.23;3.57;;;8.90;99.90;;;;;;5021646;28;20444;-30
2024/01/23 00:43:20;;;;;;;9.87;3.30;;;8.80;99.90;;;;;;5022226;28;20501;-32
2024/01/23 00:45:46;;;;;;;6.57;2.50;;;8.90;99.90;;;;;;5020092;28;20420;-31
2024/01/23 00:48:12;;;;;;;12.70;3.43;;;8.80;99.90;;;;;;5018875;28;20489;-31
2024/01/23 00:50:38;;;;;;;9.30;2.90;;;8.90;99.90;;;;;;5018685;28;20436;-31
2024/01/23 00:53:04;;;;;;;14.67;3.40;;;8.80;99.90;;;;;;5012309;28;20630;-29
2024/01/23 00:55:33;;;;;;;18.70;3.90;;;8.80;99.90;;;;;;5018598;28;20411;-28
2024/01/23 00:58:00;;;;;;;10.20;3.50;;;8.80;99.90;;;;;;5010456;28;20440;-29
2024/01/23 01:00:26;;;;;;;11.80;3.00;;;8.80;99.90;;;;;;5000140;28;20629;-29
2024/01/23 01:02:53;;;;;;;12.57;3.70;;;8.80;99.90;;;;;;5009823;28;20534;-28
2024/01/23 01:05:21;;;;;;;13.10;3.70;;;8.80;99.90;;;;;;5018610;28;20466;-28
2024/01/23 01:07:49;;;;;;;7.27;2.63;;;8.80;99.90;;;;;;5025823;28;20565;-28
2024/01/23 01:10:18;;;;;;;10.20;3.37;;;8.80;99.90;;;;;;5019138;28;20502;-29
2024/01/23 01:12:44;;;;;;;14.10;3.20;;;8.80;99.90;;;;;;5007802;28;21404;-29
2024/01/23 01:15:10;;;;;;;7.07;3.07;;;8.80;99.90;;;;;;5018910;28;20423;-27
2024/01/23 01:17:36;;;;;;;12.40;3.50;;;8.80;99.90;;;;;;5019091;28;20466;-28
2024/01/23 01:20:03;;;;;;;11.03;3.93;;;8.80;99.90;;;;;;5014019;28;20486;-28
2024/01/23 01:22:31;;;;;;;13.67;3.33;;;8.80;99.90;;;;;;5018997;28;21040;-30
2024/01/23 01:25:01;;;;;;;12.97;3.37;;;8.80;99.90;;;;;;5010196;28;20430;-28
2024/01/23 01:27:28;;;;;;;13.70;3.37;;;8.80;99.90;;;;;;5016047;28;21002;-27
2024/01/23 01:29:56;;;;;;;13.23;3.20;;;8.80;99.90;;;;;;4992948;28;20450;-31
2024/01/23 01:32:22;;;;;;;10.83;3.33;;;8.80;99.90;;;;;;5016872;28;20435;-30
2024/01/23 01:34:50;;;;;;;10.20;2.90;;;8.80;99.90;;;;;;5018366;28;20466;-29
2024/01/23 01:37:16;;;;;;;10.20;3.60;;;8.80;99.90;;;;;;4993617;28;20467;-28
2024/01/23 01:39:45;;;;;;;8.10;3.53;;;8.80;99.90;;;;;;5014594;28;20447;-31
2024/01/23 01:42:14;;;;;;;15.80;4.47;;;8.80;99.90;;;;;;5016656;28;20522;-28
2024/01/23 01:44:40;;;;;;;16.93;3.87;;;8.80;99.90;;;;;;5016923;28;20424;-28
2024/01/23 01:47:07;;;;;;;15.57;4.80;;;8.80;99.90;;;;;;5015939;28;20459;-28
2024/01/23 01:49:34;;;;;;;15.70;3.60;;;8.80;99.90;;;;;;5017594;28;20455;-28
2024/01/23 01:52:01;;;;;;;11.67;4.00;;;8.80;99.90;;;;;;5026919;28;20434;-27
2024/01/23 01:54:29;;;;;;;8.83;3.40;;;8.80;99.90;;;;;;5015128;28;20440;-29
2024/01/23 01:56:59;;;;;;;11.80;4.20;;;8.80;99.90;;;;;;5015819;28;20427;-28
2024/01/23 01:59:26;;;;;;;14.90;4.47;;;8.80;99.90;;;;;;5017281;28;20482;-29
2024/01/23 02:01:56;;;;;;;15.27;3.17;;;8.80;99.90;;;;;;5008308;28;20432;-28
2024/01/23 02:04:22;;;;;;;13.93;3.60;;;8.80;99.90;;;;;;5015035;28;20470;-29
2024/01/23 02:06:48;;;;;;;11.30;3.60;;;8.80;99.90;;;;;;5015245;28;21116;-27
2024/01/23 02:09:14;;;;;;;18.57;4.10;;;8.70;99.90;;;;;;5017446;28;20819;-29
2024/01/23 02:12:00;;;;;;;9.87;3.20;;;8.70;99.90;;;;;;5017749;28;20454;-28
2024/01/23 02:14:31;;;;;;;11.00;3.33;;;8.70;99.90;;;;;;5013815;28;20497;-29
2024/01/23 02:16:59;;;;;;;9.97;3.47;;;8.70;99.90;;;;;;5017588;28;20463;-29
2024/01/23 02:19:28;;;;;;;16.73;4.07;;;8.80;99.90;;;;;;5013654;28;20423;-28
2024/01/23 02:21:57;;;;;;;15.07;3.60;;;8.70;99.90;;;;;;5009892;28;20451;-30
2024/01/23 02:24:25;;;;;;;7.40;3.40;;;8.70;99.90;;;;;;5016220;28;20439;-28
2024/01/23 02:26:53;;;;;;;12.10;3.57;;;8.70;99.90;;;;;;5015721;28;21072;-29
2024/01/23 02:29:19;;;;;;;14.87;3.37;;;8.80;99.90;;;;;;5010340;28;20495;-30
2024/01/23 02:31:45;;;;;;;5.47;2.73;;;8.70;99.90;;;;;;5016107;28;20420;-31
2024/01/23 02:34:12;;;;;;;17.00;5.07;;;8.70;99.90;;;;;;5015836;28;20848;-31
2024/01/23 02:36:42;;;;;;;11.07;3.97;;;8.70;99.90;;;;;;5015650;28;20475;-26
2024/01/23 02:39:10;;;;;;;8.37;4.17;;;8.70;99.90;;;;;;5015046;28;21030;-31
2024/01/23 02:41:38;;;;;;;11.30;3.63;;;8.70;99.90;;;;;;4997294;28;20928;-30
2024/01/23 02:44:04;;;;;;;7.17;3.17;;;8.70;99.90;;;;;;5013355;28;21459;-28
2024/01/23 02:46:30;;;;;;;9.47;3.50;;;8.70;99.90;;;;;;5016216;28;20495;-28
2024/01/23 02:48:56;;;;;;;7.73;2.80;;;8.70;99.90;;;;;;5014509;28;20432;-30
2024/01/23 02:51:22;;;;;;;9.07;2.77;;;8.70;99.90;;;;;;5015677;28;20473;-28
2024/01/23 02:53:48;;;;;;;14.73;4.47;;;8.70;99.90;;;;;;5017266;28;20449;-30
2024/01/23 02:56:14;;;;;;;12.67;3.40;;;8.70;99.90;;;;;;5011399;28;21147;-29
2024/01/23 02:58:42;;;;;;;12.67;3.53;;;8.70;99.90;;;;;;5027771;28;20838;-31
2024/01/23 03:01:08;;;;;;;7.60;2.83;;;8.70;99.90;;;;;;5009260;28;20470;-29
2024/01/23 03:03:34;;;;;;;9.03;3.00;;;8.70;99.90;;;;;;5012955;28;20538;-27
2024/01/23 03:06:02;;;;;;;8.03;3.70;;;8.70;99.90;;;;;;5009429;28;20566;-28
2024/01/23 03:08:31;;;;;;;9.00;3.00;;;8.70;99.90;;;;;;5016747;28;20466;-28
2024/01/23 03:10:59;;;;;;;6.47;3.20;;;8.70;99.90;;;;;;5025608;28;20452;-28
2024/01/23 03:13:25;;;;;;;8.60;2.70;;;8.70;99.90;;;;;;5016328;28;20474;-28
2024/01/23 03:15:53;;;;;;;7.97;3.17;;;8.70;99.90;;;;;;5019544;28;20496;-27
2024/01/23 03:18:19;;;;;;;6.93;3.57;;;8.70;99.90;;;;;;5020783;28;20843;-29
2024/01/23 03:20:47;;;;;;;10.50;3.73;;;8.70;99.90;;;;;;5020055;28;20510;-27
2024/01/23 03:23:13;;;;;;;8.27;3.17;;;8.70;99.90;;;;;;5021306;28;21049;-28
2024/01/23 03:25:39;;;;;;;11.70;3.73;;;8.70;99.90;;;;;;5017973;28;20436;-34
2024/01/23 03:28:10;;;;;;;8.13;3.33;;;8.60;99.90;;;;;;5025667;28;20444;-33
2024/01/23 03:30:36;;;;;;;7.27;3.57;;;8.60;99.90;;;;;;5026667;28;20455;-35
2024/01/23 03:33:02;;;;;;;12.03;3.50;;;8.60;99.90;;;;;;5026327;28;20538;-35
2024/01/23 03:35:28;;;;;;;9.00;3.63;;;8.60;99.90;;;;;;5025822;28;20450;-29
2024/01/23 03:37:55;;;;;;;7.57;3.70;;;8.60;99.90;;;;;;5017012;28;20505;-28
2024/01/23 03:40:21;;;;;;;9.13;3.70;;;8.60;99.90;;;;;;5024116;28;20452;-33
2024/01/23 03:42:49;;;;;;;11.07;3.80;;;8.60;99.90;;;;;;5024178;28;21016;-32
2024/01/23 03:45:16;;;;;;;12.13;3.60;;;8.60;99.90;;;;;;5022594;28;20962;-30
2024/01/23 03:47:42;;;;;;;8.20;3.30;;;8.60;99.90;;;;;;5019673;28;20471;-30
2024/01/23 03:50:10;;;;;;;8.73;3.63;;;8.60;99.90;;;;;;4999302;28;20475;-34
2024/01/23 03:52:36;;;;;;;7.70;3.07;;;8.60;99.90;;;;;;5020287;28;20453;-34
2024/01/23 03:55:04;;;;;;;18.53;4.27;;;8.60;99.90;;;;;;5013609;28;21245;-30
2024/01/23 03:57:30;;;;;;;10.60;3.67;;;8.60;99.90;;;;;;5019591;28;20792;-34
2024/01/23 03:59:56;;;;;;;9.63;2.97;;;8.60;99.90;;;;;;5013677;28;21128;-29
2024/01/23 04:02:25;;;;;;;10.93;4.03;;;8.50;99.90;;;;;;5020593;28;20443;-31
2024/01/23 04:04:51;;;;;;;6.37;3.00;;;8.60;99.90;;;;;;5022973;28;20519;-30
2024/01/23 04:07:21;;;;;;;9.87;3.60;;;8.50;99.90;;;;;;5024092;28;20459;-33
2024/01/23 04:09:46;;;;;;;12.67;3.40;;;8.50;99.90;;;;;;5023008;28;20439;-29
2024/01/23 04:12:13;;;;;;;14.17;3.30;;;8.50;99.90;;;;;;5024361;28;20418;-34
2024/01/23 04:14:40;;;;;;;11.80;3.20;;;8.50;99.90;;;;;;5024150;28;20478;-35
2024/01/23 04:17:06;;;;;;;9.33;3.40;;;8.50;99.90;;;;;;5017378;28;20428;-28
2024/01/23 04:19:32;;;;;;;17.43;3.40;;;8.50;99.90;;;;;;5023937;28;20529;-27
2024/01/23 04:22:02;;;;;;;6.53;3.03;;;8.50;99.90;;;;;;5016860;28;20810;-37
2024/01/23 04:24:36;;;;;;;9.87;3.40;;;8.50;99.90;;;;;;5005971;28;21324;-31
2024/01/23 04:27:04;;;;;;;15.77;3.70;;;8.50;99.90;;;;;;5016289;28;20467;-33
2024/01/23 04:29:34;;;;;;;12.10;4.40;;;8.40;99.90;;;;;;5023310;28;20950;-31
2024/01/23 04:32:04;;;;;;;8.33;3.00;;;8.50;99.90;;;;;;5019591;28;20426;-30
2024/01/23 04:34:30;;;;;;;10.93;3.63;;;8.50;99.90;;;;;;5027300;28;20545;-35
2024/01/23 04:36:56;;;;;;;9.73;2.90;;;8.40;99.90;;;;;;5044293;28;20526;-34
2024/01/23 04:39:22;;;;;;;11.90;3.30;;;8.40;99.90;;;;;;5044081;28;20419;-35
2024/01/23 04:41:49;;;;;;;11.97;3.40;;;8.40;99.90;;;;;;5009797;28;20469;-31
2024/01/23 04:44:15;;;;;;;8.40;2.60;;;8.40;99.90;;;;;;5009437;28;20867;-30
2024/01/23 04:46:45;;;;;;;11.10;3.23;;;8.40;99.90;;;;;;5026109;28;20545;-32
2024/01/23 04:49:11;;;;;;;5.70;2.80;;;8.40;99.90;;;;;;5043627;28;20501;-33
2024/01/23 04:51:38;;;;;;;12.30;3.43;;;8.40;99.90;;;;;;5044644;28;20415;-34
2024/01/23 04:54:06;;;;;;;8.03;2.87;;;8.40;99.90;;;;;;5026818;28;20830;-35
2024/01/23 04:56:32;;;;;;;9.63;3.93;;;8.40;99.90;;;;;;5042664;28;21008;-28
2024/01/23 04:58:58;;;;;;;12.27;4.00;;;8.40;99.90;;;;;;5023766;28;20447;-34
2024/01/23 05:01:24;;;;;;;10.97;3.87;;;8.40;99.90;;;;;;5041365;28;20911;-28
2024/01/23 05:03:50;;;;;;;18.43;4.03;;;8.40;99.90;;;;;;5023705;28;21088;-30
2024/01/23 05:06:16;;;;;;;13.60;3.10;;;8.40;99.90;;;;;;5041464;28;20459;-34
2024/01/23 05:08:42;;;;;;;11.93;3.57;;;8.40;99.90;;;;;;5006806;28;20463;-32
2024/01/23 05:11:08;;;;;;;13.07;3.70;;;8.40;99.90;;;;;;5023020;28;20445;-27
2024/01/23 05:13:34;;;;;;;5.83;3.00;;;8.30;99.90;;;;;;5022998;28;20425;-33
2024/01/23 05:16:01;;;;;;;9.20;3.57;;;8.40;99.90;;;;;;5023431;28;20407;-31
2024/01/23 05:18:30;;;;;;;9.07;3.27;;;8.30;99.90;;;;;;5023068;28;20513;-31
2024/01/23 05:20:56;;;;;;;11.03;3.77;;;8.30;99.90;;;;;;5041402;28;20447;-36
2024/01/23 05:23:24;;;;;;;11.23;4.00;;;8.30;99.90;;;;;;5023410;28;20427;-31
2024/01/23 05:25:50;;;;;;;7.90;3.40;;;8.30;99.90;;;;;;5023084;28;21024;-31
2024/01/23 05:28:16;;;;;;;10.57;3.87;;;8.30;99.90;;;;;;5022652;28;20451;-30
2024/01/23 05:30:42;;;;;;;9.13;3.30;;;8.30;99.90;;;;;;5038848;28;20446;-34
2024/01/23 05:33:08;;;;;;;18.80;4.13;;;8.30;99.90;;;;;;5040955;28;20749;-34
2024/01/23 05:35:35;;;;;;;19.23;3.90;;;8.30;99.90;;;;;;5040740;28;20486;-35
2024/01/23 05:38:03;;;;;;;10.40;4.17;;;8.30;99.90;;;;;;5023305;28;20484;-32
2024/01/23 05:40:30;;;;;;;7.60;2.87;;;8.30;99.90;;;;;;5041733;28;20887;-29
2024/01/23 05:42:56;;;;;;;8.07;3.50;;;8.20;99.90;;;;;;5022826;28;20445;-33
2024/01/23 05:45:24;;;;;;;16.73;3.20;;;8.20;99.90;;;;;;5022873;28;20415;-33
2024/01/23 05:47:50;;;;;;;7.47;3.30;;;8.20;99.90;;;;;;5041023;28;20480;-34
2024/01/23 05:50:19;;;;;;;13.33;4.67;;;8.20;99.90;;;;;;5022363;28;20446;-35
2024/01/23 05:52:45;;;;;;;11.67;4.77;;;8.20;99.90;;;;;;5023166;28;20430;-31
2024/01/23 05:55:12;;;;;;;13.23;3.37;;;8.20;99.90;;;;;;5022998;28;20458;-33
2024/01/23 05:57:40;;;;;;;16.43;3.77;;;8.20;99.90;;;;;;5041295;28;20803;-30
2024/01/23 06:00:13;;;;;;;14.73;6.20;;;8.20;99.90;;;;;;5040866;28;20442;-31
2024/01/23 06:02:44;;;;;;;10.20;3.17;;;8.20;99.90;;;;;;5023272;28;20433;-32
2024/01/23 06:05:12;;;;;;;13.73;3.70;;;8.20;99.90;;;;;;5022949;28;20419;-31
2024/01/23 06:07:43;;;;;;;10.50;2.93;;;8.20;99.90;;;;;;5023353;28;20472;-35
2024/01/23 06:10:09;;;;;;;13.47;3.77;;;8.20;99.90;;;;;;5022940;28;20857;-33
2024/01/23 06:12:36;;;;;;;17.20;4.90;;;8.20;99.90;;;;;;5022855;28;21325;-33
2024/01/23 06:15:06;;;;;;;12.53;3.63;;;8.20;99.90;;;;;;5039083;28;20487;-36
2024/01/23 06:17:32;;;;;;;6.73;3.33;;;8.10;99.90;;;;;;5022597;28;20446;-36
2024/01/23 06:20:00;;;;;;;11.47;4.20;;;8.10;99.90;;;;;;5040375;28;20473;-30
2024/01/23 06:22:27;;;;;;;10.30;3.70;;;8.10;99.90;;;;;;5005638;28;20419;-31
2024/01/23 06:25:06;;;;;;;9.40;3.37;;;8.10;99.90;;;;;;5040658;28;20484;-31
2024/01/23 06:27:32;;;;;;;16.33;3.07;;;8.10;99.90;;;;;;5039644;28;20474;-32
2024/01/23 06:29:59;;;;;;;12.70;3.60;;;8.10;99.90;;;;;;5023454;28;20504;-36
2024/01/23 06:32:27;;;;;;;11.17;3.37;;;8.10;99.90;;;;;;5023128;28;21306;-30
2024/01/23 06:34:58;;;;;;;15.80;4.07;;;8.10;99.90;;;;;;5022944;28;20996;-28
2024/01/23 06:37:24;;;;;;;9.53;3.40;;;8.10;99.90;;;;;;5038162;28;20492;-27
2024/01/23 06:39:52;;;;;;;9.43;3.27;;;8.10;99.90;;;;;;5036717;28;20474;-29
2024/01/23 06:42:19;;;;;;;10.00;5.53;;;8.10;99.90;;;;;;5037576;28;21212;-27
2024/01/23 06:44:45;;;;;;;12.70;4.23;;;8.00;99.90;;;;;;4998793;28;21267;-30
2024/01/23 06:47:18;;;;;;;12.40;3.80;;;8.10;99.90;;;;;;5017601;28;21006;-28
2024/01/23 06:49:44;;;;;;;10.07;3.23;;;8.10;99.90;;;;;;5003777;28;20460;-27
2024/01/23 06:52:12;;;;;;;7.07;3.20;;;8.00;99.90;;;;;;5038091;28;20882;-29
2024/01/23 06:54:39;;;;;;;10.60;3.20;;;8.00;99.90;;;;;;5038247;28;20439;-28
2024/01/23 06:57:05;;;;;;;8.03;2.90;;;8.00;99.90;;;;;;5036432;28;20529;-29
2024/01/23 06:59:31;;;;;;;16.33;3.47;;;8.00;99.90;;;;;;5020317;28;20874;-27
2024/01/23 07:01:57;;;;;;;12.67;3.90;;;8.00;99.90;;;;;;5020370;28;20470;-26
2024/01/23 07:04:23;;;;;;;11.83;3.93;;;8.00;99.90;;;;;;5023915;28;20428;-29
2024/01/23 07:06:49;;;;;;;13.10;3.53;;;8.00;99.90;;;;;;5041644;28;20656;-27
2024/01/23 07:09:17;;;;;;;20.50;4.00;;;8.00;99.90;;;;;;5005352;28;20435;-27
2024/01/23 07:11:45;;;;;;;10.50;4.20;;;8.00;99.90;;;;;;5007568;28;20419;-26
2024/01/23 07:14:11;;;;;;;10.33;3.50;;;8.00;99.90;;;;;;5023750;28;20739;-27
2024/01/23 07:16:39;;;;;;;5.67;2.90;;;8.00;99.90;;;;;;5040836;28;20457;-28
2024/01/23 07:19:05;;;;;;;11.87;4.60;;;8.00;99.90;;;;;;5022531;28;20427;-28
2024/01/23 07:21:34;;;;;;;10.03;3.70;;;8.00;99.90;;;;;;5021538;28;20450;-26
2024/01/23 07:24:07;;;;;;;17.03;4.00;;;8.00;99.90;;;;;;5040596;28;20442;-29
2024/01/23 07:26:33;;;;;;;8.53;3.50;;;8.00;99.90;;;;;;5023565;28;20474;-29
2024/01/23 07:28:59;;;;;;;10.70;3.23;;;7.90;99.90;;;;;;5042153;28;20441;-26
2024/01/23 07:31:25;;;;;;;13.63;3.73;;;8.00;99.90;;;;;;5041203;28;20447;-31
2024/01/23 07:33:54;;;;;;;8.57;3.43;;;8.00;99.90;;;;;;5022181;28;20520;-27
2024/01/23 07:36:20;;;;;;;8.50;3.43;;;8.00;99.90;;;;;;5040300;28;20503;-26
2024/01/23 07:38:46;;;;;;;6.93;3.60;;;7.90;99.90;;;;;;5040528;28;20456;-26
2024/01/23 07:41:14;;;;;;;11.93;4.07;;;7.90;99.90;;;;;;5041096;28;20445;-30
2024/01/23 07:43:40;;;;;;;7.77;2.90;;;7.90;99.90;;;;;;5039279;28;20427;-27
2024/01/23 07:46:06;;;;;;;11.73;3.70;;;7.90;99.90;;;;;;5040828;28;20441;-27
2024/01/23 07:48:32;;;;;;;18.57;3.50;;;7.90;99.90;;;;;;5022814;28;20917;-27
2024/01/23 07:51:01;;;;;;;11.70;3.93;;;7.90;99.90;;;;;;5023055;28;20606;-26
2024/01/23 07:53:30;;;;;;;12.63;3.30;;;7.90;99.90;;;;;;5040137;28;20449;-26
2024/01/23 07:55:57;;;;;;;11.87;3.93;;;7.90;99.90;;;;;;5022748;28;21001;-26
2024/01/23 07:58:23;;;;;;;11.40;3.10;;;7.90;99.90;;;;;;5039588;28;20427;-26
2024/01/23 08:00:53;;;;;;;8.03;3.57;;;7.90;99.90;;;;;;5040711;28;20500;-24
2024/01/23 08:03:19;;;;;;;9.87;3.77;;;7.90;99.90;;;;;;5021269;28;20441;-28
2024/01/23 08:05:45;;;;;;;9.83;3.80;;;7.90;99.90;;;;;;4994083;28;20957;-25
2024/01/23 08:08:17;;;;;;;13.33;3.87;;;7.80;99.90;;;;;;5001868;28;20528;-24
2024/01/23 08:10:43;;;;;;;13.47;3.60;;;7.90;99.90;;;;;;5021885;28;20450;-25
2024/01/23 08:13:11;;;;;;;10.47;3.50;;;7.80;99.90;;;;;;5001014;28;20816;-26
2024/01/23 08:15:39;;;;;;;11.90;3.90;;;7.90;99.90;;;;;;5022169;28;20423;-25
2024/01/23 08:18:08;;;;;;;13.30;3.20;;;7.80;99.90;;;;;;5039726;28;21013;-24
2024/01/23 08:20:34;;;;;;;15.27;3.77;;;7.90;99.90;;;;;;5041451;28;21307;-27
2024/01/23 08:23:01;;;;;;;15.73;3.33;;;7.80;99.90;;;;;;5039747;28;21439;-25
2024/01/23 08:25:30;;;;;;;11.07;3.88;;;7.90;99.90;;;;;;5039779;28;20525;-30
2024/01/23 08:27:59;;;;;;;13.63;3.50;;;7.80;99.90;;;;;;5021068;28;20224;-24
2024/01/23 08:30:25;;;;;;;9.47;3.30;;;7.80;99.90;;;;;;4999673;28;20531;-25
2024/01/23 08:32:51;;;;;;;8.87;3.87;;;7.80;99.90;;;;;;5022446;28;20626;-28
2024/01/23 08:35:17;;;;;;;5.40;2.80;;;7.80;99.90;;;;;;5041047;28;21020;-28
2024/01/23 08:37:43;;;;;;;8.63;3.23;;;7.80;99.90;;;;;;5021098;28;20557;-24
2024/01/23 08:40:10;;;;;;;12.90;5.00;;;7.80;99.90;;;;;;5037975;28;20446;-24
2024/01/23 08:42:37;;;;;;;8.97;3.00;;;7.80;99.90;;;;;;5019719;28;20427;-28
2024/01/23 08:45:08;;;;;;;6.50;2.90;;;7.80;99.90;;;;;;5021222;28;20433;-26
2024/01/23 08:47:34;;;;;;;12.03;3.43;;;7.80;99.90;;;;;;5038795;28;20572;-26
2024/01/23 08:50:04;;;;;;;12.83;3.43;;;7.80;99.90;;;;;;5039152;28;20493;-26
2024/01/23 08:52:30;;;;;;;9.23;3.30;;;7.80;99.90;;;;;;5039494;28;20656;-27
2024/01/23 08:54:56;;;;;;;7.53;3.60;;;7.80;99.90;;;;;;5004588;28;20816;-27
2024/01/23 08:57:24;;;;;;;16.40;4.43;;;7.80;99.90;;;;;;5020598;28;20447;-28
2024/01/23 08:59:50;;;;;;;8.70;3.67;;;7.80;99.90;;;;;;5040104;28;20458;-26
2024/01/23 09:02:16;;;;;;;7.90;4.03;;;7.80;99.90;;;;;;5021905;28;20538;-25
2024/01/23 09:04:46;;;;;;;8.80;2.87;;;7.80;99.90;;;;;;5037341;28;20431;-27
2024/01/23 09:07:13;;;;;;;12.20;3.50;;;7.80;99.90;;;;;;5038794;28;20524;-25
2024/01/23 09:09:41;;;;;;;10.80;3.33;;;7.80;99.90;;;;;;5035385;28;20464;-25
2024/01/23 09:12:07;;;;;;;15.43;3.77;;;7.80;99.90;;;;;;5015610;28;20434;-28
2024/01/23 09:14:41;;;;;;;17.70;3.80;;;7.80;99.90;;;;;;5037902;28;20445;-26
2024/01/23 09:17:07;;;;;;;12.60;3.47;;;7.80;99.90;;;;;;5013078;28;20419;-25
2024/01/23 09:19:33;;;;;;;11.83;4.00;;;7.80;99.90;;;;;;5037759;28;20443;-27
2024/01/23 09:22:02;;;;;;;9.20;4.13;;;7.80;99.90;;;;;;5038418;28;20453;-27
2024/01/23 09:24:27;;;;;;;13.57;3.80;;;7.80;99.90;;;;;;5038365;28;20546;-24
2024/01/23 09:27:01;;;;;;;8.33;3.53;;;7.80;99.90;;;;;;5019881;28;20470;-24
2024/01/23 09:29:27;;;;;;;12.53;3.63;;;7.80;99.90;;;;;;5038258;28;20499;-25
2024/01/23 09:31:54;;;;;;;13.03;3.40;;;7.80;99.90;;;;;;5035784;28;20469;-25
2024/01/23 09:34:20;;;;;;;9.50;3.33;;;7.80;99.90;;;;;;5016510;28;21031;-26
2024/01/23 09:36:46;;;;;;;9.87;4.43;;;7.90;99.90;;;;;;5014354;28;21044;-27
2024/01/23 09:39:18;;;;;;;14.83;3.40;;;7.80;99.90;;;;;;5020052;28;20423;-26
2024/01/23 09:42:02;;;;;;;7.10;3.00;;;7.80;99.90;;;;;;5019511;28;20447;-26
2024/01/23 09:44:28;;;;;;;19.03;4.23;;;7.90;99.90;;;;;;5037542;28;20507;-27
2024/01/23 09:46:54;;;;;;;6.10;2.77;;;7.90;99.90;;;;;;5003868;28;20469;-30
2024/01/23 09:49:21;;;;;;;14.87;3.80;;;7.80;99.90;;;;;;5020160;28;20454;-25
2024/01/23 09:51:50;;;;;;;14.77;4.00;;;7.80;99.90;;;;;;5036773;28;20477;-26
2024/01/23 09:54:17;;;;;;;17.77;4.10;;;7.80;99.90;;;;;;5019600;28;20469;-26
2024/01/23 09:56:43;;;;;;;11.50;4.43;;;7.80;99.90;;;;;;5019772;28;20434;-25
2024/01/23 09:59:11;;;;;;;10.27;3.67;;;7.90;99.90;;;;;;5019670;28;20431;-26
2024/01/23 10:01:38;;;;;;;11.93;4.23;;;7.90;99.90;;;;;;5035934;28;20545;-27
2024/01/23 10:04:07;;;;;;;12.73;3.90;;;7.90;99.90;;;;;;5021929;28;20472;-27
2024/01/23 10:06:34;;;;;;;8.07;3.73;;;7.90;99.90;;;;;;5023335;28;20919;-27
2024/01/23 10:09:04;;;;;;;12.37;3.60;;;7.90;99.90;;;;;;5040685;28;20419;-27
2024/01/23 10:11:36;;;;;;;14.30;3.60;;;7.90;99.90;;;;;;5042052;28;21156;-31
2024/01/23 10:14:03;;;;;;;12.33;3.50;;;7.90;99.90;;;;;;5038781;28;20876;-29
2024/01/23 10:16:29;;;;;;;11.80;3.97;;;7.90;99.90;;;;;;5041165;28;20960;-29
2024/01/23 10:18:59;;;;;;;15.27;3.80;;;7.90;99.90;;;;;;5004624;28;20930;-29
2024/01/23 10:21:25;;;;;;;12.93;3.50;;;7.90;99.90;;;;;;5040352;28;20614;-26
2024/01/23 10:23:56;;;;;;;9.30;3.70;;;7.90;99.90;;;;;;5040347;28;20513;-28
2024/01/23 10:26:25;;;;;;;12.00;3.50;;;7.90;99.90;;;;;;5039554;28;21003;-24
2024/01/23 10:28:54;;;;;;;14.30;3.63;;;7.90;99.90;;;;;;5031303;28;20481;-28
2024/01/23 10:31:22;;;;;;;10.90;4.60;;;7.90;99.90;;;;;;4987606;28;20496;-28
2024/01/23 10:33:48;;;;;;;11.20;4.67;;;7.90;99.90;;;;;;5021311;28;20453;-27
2024/01/23 10:36:16;;;;;;;11.60;3.47;;;8.00;99.90;;;;;;5038628;28;20415;-28
2024/01/23 10:38:43;;;;;;;11.20;3.73;;;8.00;99.90;;;;;;5038569;28;20419;-24
2024/01/23 10:41:17;;;;;;;13.37;3.60;;;7.90;99.90;;;;;;5037410;28;20446;-26
2024/01/23 10:43:46;;;;;;;12.20;4.20;;;8.00;99.90;;;;;;5038026;28;20454;-26
2024/01/23 10:46:19;;;;;;;16.73;4.37;;;8.00;99.90;;;;;;5020627;28;20507;-28
2024/01/23 10:48:45;;;;;;;19.63;4.03;;;8.00;99.90;;;;;;5037916;28;20443;-29
2024/01/23 10:51:19;;;;;;;18.73;4.17;;;8.00;99.90;;;;;;5020907;28;20477;-27
2024/01/23 10:54:07;;;;;;;12.90;3.90;;;8.00;99.90;;;;;;5037670;28;20492;-28
2024/01/23 10:56:46;;;;;;;13.57;3.93;;;8.00;99.90;;;;;;5004475;28;20455;-27
2024/01/23 10:59:18;;;;;;;13.40;3.80;;;8.00;99.90;;;;;;5034599;28;20502;-25
2024/01/23 11:01:49;;;;;;;13.03;3.50;;;8.00;99.90;;;;;;5037902;28;20443;-25
2024/01/23 11:04:16;;;;;;;9.80;4.13;;;8.00;99.90;;;;;;5028512;28;20542;-28
2024/01/23 11:07:05;;;;;;;14.40;4.67;;;8.00;99.90;;;;;;5003826;28;20510;-27
2024/01/23 11:09:50;;;;;;;11.33;3.37;;;8.00;99.90;;;;;;5018569;28;20439;-25
2024/01/23 11:12:45;;;;;;;13.07;3.90;;;8.00;99.90;;;;;;5036536;28;20467;-26
2024/01/23 11:15:16;;;;;;;13.90;4.00;;;8.10;99.90;;;;;;5020522;28;21242;-28
2024/01/23 11:17:42;;;;;;;13.70;4.93;;;8.00;99.90;;;;;;5037584;28;20457;-26
2024/01/23 11:20:13;;;;;;;19.60;4.77;;;8.00;99.90;;;;;;5036220;28;20613;-26
2024/01/23 11:22:42;;;;;;;14.40;4.57;;;8.10;99.90;;;;;;5019639;28;20478;-28
2024/01/23 11:25:12;;;;;;;10.53;3.77;;;8.10;99.90;;;;;;5037517;28;20423;-27
2024/01/23 11:27:39;;;;;;;13.97;3.70;;;8.10;99.90;;;;;;5019101;28;20984;-25
2024/01/23 11:30:16;;;;;;;15.27;4.00;;;8.10;99.90;;;;;;5019023;28;21059;-29
2024/01/23 11:32:42;;;;;;;12.23;3.70;;;8.10;99.90;;;;;;5035747;28;20459;-29
2024/01/23 11:35:14;;;;;;;14.37;4.60;;;8.10;99.90;;;;;;5037061;28;21103;-27
2024/01/23 11:37:48;;;;;;;20.53;4.53;;;8.10;99.90;;;;;;5018614;28;21050;-25
2024/01/23 11:40:29;;;;;;;11.17;3.83;;;8.10;99.90;;;;;;5037427;28;20457;-29
2024/01/23 11:43:00;;;;;;;17.87;4.63;;;8.20;99.90;;;;;;5019215;28;20438;-30
2024/01/23 11:45:33;;;;;;;14.70;3.73;;;8.20;99.90;;;;;;5036077;28;21183;-29
2024/01/23 11:48:04;;;;;;;13.63;4.00;;;8.20;99.90;;;;;;5036300;28;21166;-25
2024/01/23 11:50:33;;;;;;;18.07;3.97;;;8.20;99.90;;;;;;5039513;28;20455;-28
2024/01/23 11:53:02;;;;;;;11.77;3.43;;;8.20;99.90;;;;;;5022606;28;20426;-29
2024/01/23 11:55:29;;;;;;;13.33;4.17;;;8.20;99.90;;;;;;5039770;28;20526;-25
2024/01/23 11:58:00;;;;;;;12.17;3.63;;;8.20;99.90;;;;;;5022026;28;20450;-26
2024/01/23 12:00:29;;;;;;;16.40;4.17;;;8.20;99.90;;;;;;5021874;28;20439;-26
2024/01/23 12:02:59;;;;;;;14.10;3.80;;;8.20;99.90;;;;;;5021607;28;20431;-28
2024/01/23 12:05:25;;;;;;;17.37;4.10;;;8.20;99.90;;;;;;5022476;28;20511;-31
2024/01/23 12:07:51;;;;;;;16.13;4.17;;;8.20;99.90;;;;;;5041478;28;20466;-29
2024/01/23 12:10:20;;;;;;;17.40;3.47;;;8.30;99.90;;;;;;5022744;28;20483;-27
2024/01/23 12:12:50;;;;;;;10.70;4.00;;;8.30;99.90;;;;;;5042871;28;20570;-27
2024/01/23 12:15:18;;;;;;;25.33;4.40;;;8.30;99.90;;;;;;5017037;28;20434;-26
2024/01/23 12:17:46;;;;;;;12.63;4.33;;;8.30;99.90;;;;;;5040622;28;20525;-27
2024/01/23 12:20:14;;;;;;;16.00;4.80;;;8.30;99.90;;;;;;5041285;28;20803;-29
2024/01/23 12:22:43;;;;;;;13.60;3.63;;;8.30;99.90;;;;;;5025557;28;20411;-30
2024/01/23 12:25:12;;;;;;;12.17;3.97;;;8.30;99.90;;;;;;5042828;28;20442;-29
2024/01/23 12:27:38;;;;;;;12.20;4.60;;;8.30;99.90;;;;;;5043502;28;20450;-25
2024/01/23 12:30:09;;;;;;;10.40;3.47;;;8.30;99.90;;;;;;5042144;28;20435;-24
2024/01/23 12:32:35;;;;;;;14.73;3.87;;;8.30;99.90;;;;;;5043382;28;20427;-27
2024/01/23 12:35:01;;;;;;;14.17;4.00;;;8.30;99.90;;;;;;5041673;28;20419;-28
2024/01/23 12:37:31;;;;;;;12.60;3.67;;;8.30;99.90;;;;;;5025515;28;20422;-24
2024/01/23 12:40:08;;;;;;;9.40;3.57;;;8.30;99.90;;;;;;5043072;28;20505;-30
2024/01/23 12:42:39;;;;;;;21.50;4.00;;;8.30;99.90;;;;;;5043482;28;20426;-28
2024/01/23 12:45:11;;;;;;;13.37;3.50;;;8.30;99.90;;;;;;5041006;28;20423;-26
2024/01/23 12:47:41;;;;;;;15.03;4.00;;;8.30;99.90;;;;;;5041086;28;20478;-25
2024/01/23 12:50:16;;;;;;;8.77;3.43;;;8.30;99.90;;;;;;5023826;28;20442;-26
2024/01/23 12:52:42;;;;;;;13.70;4.70;;;8.30;99.90;;;;;;5042391;28;21070;-27
2024/01/23 12:55:08;;;;;;;14.90;3.70;;;8.40;99.90;;;;;;5023557;28;20411;-26